METAR Data
IDs: Format: Raw Decoded Include TAF

Data at: 1757 UTC 26 Sep 2021

LFST 261730Z AUTO VRB02KT 4200 1000 R23/P2000 R05/P2000 BR NSC 18/14 Q1018 TEMPO FEW030CB BECMG 9999 NSW